createdAt,value
2023-04-30T00:00:39.779Z,29.85
2023-04-30T00:01:39.808Z,29.85
2023-04-30T00:02:39.979Z,29.88
2023-04-30T00:03:39.949Z,29.86
2023-04-30T00:04:39.894Z,29.82
2023-04-30T00:05:39.952Z,29.84
2023-04-30T00:06:40.081Z,29.84
2023-04-30T00:07:39.967Z,29.86
2023-04-30T00:08:40.002Z,29.85
2023-04-30T00:09:40.029Z,29.86
2023-04-30T00:10:40.026Z,29.86
2023-04-30T00:11:40.046Z,29.86
2023-04-30T00:12:40.038Z,29.86
2023-04-30T00:13:40.022Z,29.86
2023-04-30T00:14:40.011Z,29.85
2023-04-30T00:15:40.023Z,29.84
2023-04-30T00:16:40.016Z,29.85
2023-04-30T00:17:40.040Z,29.86
2023-04-30T00:18:39.967Z,29.87
2023-04-30T00:19:40.000Z,29.86
2023-04-30T00:20:39.954Z,29.87
2023-04-30T00:21:39.943Z,29.87
2023-04-30T00:22:39.924Z,29.87
2023-04-30T00:23:39.926Z,29.88
2023-04-30T00:24:39.908Z,29.88
2023-04-30T00:25:39.927Z,29.89
2023-04-30T00:26:39.944Z,29.87
2023-04-30T00:27:41.031Z,29.88
2023-04-30T00:28:40.026Z,29.89
2023-04-30T00:29:40.036Z,29.88
2023-04-30T00:30:40.097Z,29.89
2023-04-30T00:31:40.123Z,29.89
2023-04-30T00:32:40.153Z,29.88
2023-04-30T00:33:40.174Z,29.90
2023-04-30T00:34:40.203Z,29.87
2023-04-30T00:35:40.252Z,29.88
2023-04-30T00:36:40.296Z,29.92
2023-04-30T00:37:40.340Z,29.91
2023-04-30T00:38:40.356Z,29.90
2023-04-30T00:39:40.401Z,29.90
2023-04-30T00:40:40.417Z,29.90
2023-04-30T00:41:40.455Z,29.92
2023-04-30T00:42:40.490Z,29.89
2023-04-30T00:43:40.529Z,29.90
2023-04-30T00:44:40.562Z,29.92
2023-04-30T00:45:40.648Z,29.89
2023-04-30T00:46:40.638Z,29.90
2023-04-30T00:47:40.725Z,29.91
2023-04-30T00:48:40.656Z,29.93
2023-04-30T00:49:40.648Z,29.91
2023-04-30T00:50:40.665Z,29.90
2023-04-30T00:51:40.623Z,29.91
2023-04-30T00:52:40.645Z,29.92
2023-04-30T00:53:40.609Z,29.92
2023-04-30T00:54:40.596Z,29.92
2023-04-30T00:55:40.602Z,29.93
2023-04-30T00:56:40.568Z,29.92
2023-04-30T00:57:40.576Z,29.92
2023-04-30T00:58:40.561Z,29.92
2023-04-30T00:59:40.545Z,29.93
2023-04-30T01:00:40.522Z,29.90
2023-04-30T01:01:40.701Z,29.92
2023-04-30T01:02:40.659Z,29.92
2023-04-30T01:03:40.667Z,29.93
2023-04-30T01:04:40.650Z,29.92
2023-04-30T01:05:40.706Z,29.94
2023-04-30T01:06:40.807Z,29.93
2023-04-30T01:07:40.760Z,29.93
2023-04-30T01:08:40.810Z,29.96
2023-04-30T01:09:40.831Z,29.93
2023-04-30T01:10:40.873Z,29.93
2023-04-30T01:11:40.921Z,29.93
2023-04-30T01:12:40.952Z,29.93
2023-04-30T01:13:40.993Z,29.95
2023-04-30T01:14:41.030Z,29.95
2023-04-30T01:15:41.101Z,29.94
2023-04-30T01:16:41.091Z,29.94
2023-04-30T01:17:41.171Z,29.96
2023-04-30T01:18:41.285Z,29.94
2023-04-30T01:19:41.225Z,29.94
2023-04-30T01:20:41.250Z,29.95
2023-04-30T01:21:41.295Z,29.94
2023-04-30T01:22:41.339Z,29.93
2023-04-30T01:23:41.372Z,29.95
2023-04-30T01:24:41.423Z,29.96
2023-04-30T01:25:41.458Z,29.98
2023-04-30T01:26:41.524Z,29.95
2023-04-30T01:27:41.532Z,29.98
2023-04-30T01:28:41.521Z,30.00
2023-04-30T01:29:41.518Z,29.94
2023-04-30T01:30:41.543Z,29.97
2023-04-30T01:31:41.575Z,29.96
2023-04-30T01:32:41.538Z,30.00
2023-04-30T01:33:41.468Z,29.97
2023-04-30T01:34:41.449Z,29.97
2023-04-30T01:35:41.455Z,29.98
2023-04-30T01:36:41.442Z,29.99
2023-04-30T01:37:41.420Z,29.98
2023-04-30T01:38:41.391Z,29.99
2023-04-30T01:39:41.442Z,29.99
2023-04-30T01:40:41.379Z,29.99
2023-04-30T01:41:41.384Z,29.96
2023-04-30T01:42:41.329Z,30.00
2023-04-30T01:43:41.362Z,29.98
2023-04-30T01:44:41.410Z,30.00
2023-04-30T01:45:41.436Z,29.99
2023-04-30T01:46:41.625Z,30.01
2023-04-30T01:47:41.579Z,30.00
2023-04-30T01:48:41.550Z,30.01
2023-04-30T01:49:41.606Z,30.02
2023-04-30T01:50:41.635Z,30.01
2023-04-30T01:51:41.680Z,30.01
2023-04-30T01:52:41.720Z,30.01
2023-04-30T01:53:41.759Z,29.99
2023-04-30T01:54:41.785Z,30.03
2023-04-30T01:55:41.830Z,30.02
2023-04-30T01:56:41.885Z,30.03
2023-04-30T01:57:41.916Z,30.00
2023-04-30T01:58:41.904Z,29.99
2023-04-30T01:59:41.913Z,30.03
2023-04-30T02:00:41.889Z,30.02
2023-04-30T02:01:41.924Z,30.02
2023-04-30T02:02:41.945Z,30.03
2023-04-30T02:03:41.991Z,30.01
2023-04-30T02:04:41.856Z,30.03
2023-04-30T02:05:41.856Z,30.01
2023-04-30T02:06:41.889Z,30.03
2023-04-30T02:07:41.845Z,30.03
2023-04-30T02:08:41.830Z,30.03
2023-04-30T02:09:41.835Z,30.01
2023-04-30T02:10:41.845Z,30.02
2023-04-30T02:11:41.845Z,30.04
2023-04-30T02:12:41.831Z,30.05
2023-04-30T02:13:41.825Z,30.01
2023-04-30T02:14:41.830Z,30.03
2023-04-30T02:15:41.855Z,30.04
2023-04-30T02:16:42.120Z,30.05
2023-04-30T02:17:41.822Z,30.06
2023-04-30T02:18:41.778Z,30.04
2023-04-30T02:19:41.787Z,30.04
2023-04-30T02:20:41.842Z,30.04
2023-04-30T02:21:41.880Z,30.04
2023-04-30T02:22:41.914Z,30.04
2023-04-30T02:23:41.961Z,30.05
2023-04-30T02:24:41.989Z,30.06
2023-04-30T02:25:42.037Z,30.06
2023-04-30T02:26:42.065Z,30.04
2023-04-30T02:27:42.107Z,30.05
2023-04-30T02:28:42.156Z,30.06
2023-04-30T02:29:42.208Z,30.06
2023-04-30T02:30:42.243Z,30.05
2023-04-30T02:31:42.398Z,30.07
2023-04-30T02:32:42.369Z,30.06
2023-04-30T02:33:42.373Z,30.07
2023-04-30T02:34:42.439Z,30.07
2023-04-30T02:35:42.462Z,30.09
2023-04-30T02:36:42.530Z,30.08
2023-04-30T02:37:42.550Z,30.09
2023-04-30T02:38:42.633Z,30.07
2023-04-30T02:39:42.638Z,30.04
2023-04-30T02:40:42.689Z,30.08
2023-04-30T02:41:42.760Z,30.09
2023-04-30T02:42:42.782Z,30.09
2023-04-30T02:43:42.822Z,30.07
2023-04-30T02:44:42.862Z,30.06
2023-04-30T02:45:43.040Z,29.91
2023-04-30T02:46:42.926Z,29.84
2023-04-30T02:47:42.987Z,29.82
2023-04-30T02:48:42.979Z,29.79
2023-04-30T02:49:43.005Z,29.78
2023-04-30T02:50:43.058Z,29.81
2023-04-30T02:51:43.085Z,29.79
2023-04-30T02:52:43.116Z,29.79
2023-04-30T02:53:43.155Z,29.83
2023-04-30T02:54:43.197Z,29.85
2023-04-30T02:55:43.247Z,29.88
2023-04-30T02:56:43.283Z,29.90
2023-04-30T02:57:43.328Z,29.95
2023-04-30T02:58:43.367Z,29.97
2023-04-30T02:59:43.416Z,29.99
2023-04-30T03:00:43.453Z,30.05
2023-04-30T03:01:43.545Z,30.08
2023-04-30T03:02:43.681Z,30.13
2023-04-30T03:03:43.662Z,30.15
2023-04-30T03:04:43.701Z,30.17
2023-04-30T03:05:43.744Z,30.22
2023-04-30T03:06:43.887Z,30.23
2023-04-30T03:07:43.826Z,30.23
2023-04-30T03:08:43.844Z,30.29
2023-04-30T03:09:43.879Z,30.32
2023-04-30T03:10:43.900Z,30.35
2023-04-30T03:11:43.935Z,30.37
2023-04-30T03:12:43.965Z,30.38
2023-04-30T03:13:44.001Z,30.37
2023-04-30T03:14:43.997Z,30.37
2023-04-30T03:15:44.000Z,30.37
2023-04-30T03:16:44.020Z,30.39
2023-04-30T03:17:45.977Z,30.39
2023-04-30T03:18:43.999Z,30.40
2023-04-30T03:19:43.972Z,30.43
2023-04-30T03:20:43.961Z,30.44
2023-04-30T03:21:43.954Z,30.44
2023-04-30T03:22:43.976Z,30.47
2023-04-30T03:23:43.945Z,30.47
2023-04-30T03:24:43.952Z,30.49
2023-04-30T03:25:43.957Z,30.52
2023-04-30T03:26:43.960Z,30.52
2023-04-30T03:27:43.958Z,30.52
2023-04-30T03:28:43.973Z,30.53
2023-04-30T03:29:44.024Z,30.54
2023-04-30T03:30:43.964Z,30.54
2023-04-30T03:31:43.979Z,30.56
2023-04-30T03:32:43.995Z,30.58
2023-04-30T03:33:43.987Z,30.58
2023-04-30T03:34:43.932Z,30.61
2023-04-30T03:35:43.929Z,30.62
2023-04-30T03:36:43.928Z,30.62
2023-04-30T03:37:43.919Z,30.65
2023-04-30T03:38:43.909Z,30.71
2023-04-30T03:39:43.902Z,30.69
2023-04-30T03:40:43.902Z,30.72
2023-04-30T03:41:43.900Z,30.71
2023-04-30T03:42:43.910Z,30.75
2023-04-30T03:43:43.896Z,30.74
2023-04-30T03:44:43.882Z,30.71
2023-04-30T03:45:43.913Z,30.74
2023-04-30T03:46:43.980Z,30.75
2023-04-30T03:47:43.909Z,30.75
2023-04-30T03:48:43.858Z,30.75
2023-04-30T03:49:43.886Z,30.80
2023-04-30T03:50:43.882Z,30.81
2023-04-30T03:51:43.877Z,30.82
2023-04-30T03:52:43.865Z,30.81
2023-04-30T03:53:43.856Z,30.83
2023-04-30T03:54:43.861Z,30.87
2023-04-30T03:55:43.850Z,30.86
2023-04-30T03:56:43.893Z,30.85
2023-04-30T03:57:43.838Z,30.88
2023-04-30T03:58:43.837Z,30.89
2023-04-30T03:59:43.832Z,30.91
2023-04-30T04:00:43.822Z,30.93
2023-04-30T04:01:43.880Z,30.94
2023-04-30T04:02:43.909Z,30.96
2023-04-30T04:03:43.941Z,30.98
2023-04-30T04:04:43.955Z,30.99
2023-04-30T04:05:43.982Z,31.00
2023-04-30T04:06:44.100Z,30.99
2023-04-30T04:07:44.033Z,31.02
2023-04-30T04:08:44.141Z,31.03
2023-04-30T04:09:44.113Z,31.06
2023-04-30T04:10:44.151Z,31.06
2023-04-30T04:11:44.199Z,31.08
2023-04-30T04:12:44.219Z,31.12
2023-04-30T04:13:44.264Z,31.14
2023-04-30T04:14:44.315Z,31.15
2023-04-30T04:15:44.367Z,31.18
2023-04-30T04:16:44.373Z,31.16
2023-04-30T04:17:44.467Z,31.21
2023-04-30T04:18:44.459Z,31.22
2023-04-30T04:19:44.505Z,31.26
2023-04-30T04:20:44.566Z,31.26
2023-04-30T04:21:44.567Z,31.26
2023-04-30T04:22:44.608Z,31.25
2023-04-30T04:23:44.645Z,31.28
2023-04-30T04:24:44.707Z,31.31
2023-04-30T04:25:44.731Z,31.29
2023-04-30T04:26:46.630Z,31.29
2023-04-30T04:27:44.768Z,31.29
2023-04-30T04:28:44.769Z,31.29
2023-04-30T04:29:44.737Z,31.28
2023-04-30T04:30:44.746Z,31.28
2023-04-30T04:31:44.846Z,31.28
2023-04-30T04:32:44.730Z,31.26
2023-04-30T04:33:44.726Z,31.31
2023-04-30T04:34:44.716Z,31.29
2023-04-30T04:35:44.700Z,31.28
2023-04-30T04:36:44.712Z,31.31
2023-04-30T04:37:44.704Z,31.31
2023-04-30T04:38:44.700Z,31.31
2023-04-30T04:39:44.697Z,31.31
2023-04-30T04:40:44.681Z,31.31
2023-04-30T04:41:44.688Z,31.34
2023-04-30T04:42:44.668Z,31.35
2023-04-30T04:43:44.648Z,31.40
2023-04-30T04:44:44.650Z,31.41
2023-04-30T04:45:44.633Z,31.42
2023-04-30T04:46:44.703Z,31.42
2023-04-30T04:47:44.672Z,31.45
2023-04-30T04:48:44.639Z,31.45
2023-04-30T04:49:44.617Z,31.47
2023-04-30T04:50:44.647Z,31.46
2023-04-30T04:51:44.627Z,31.47
2023-04-30T04:52:44.609Z,31.51
2023-04-30T04:53:44.606Z,31.52
2023-04-30T04:54:44.612Z,31.51
2023-04-30T04:55:44.589Z,31.52
2023-04-30T04:56:44.586Z,31.56
2023-04-30T04:57:44.592Z,31.56
2023-04-30T04:58:44.579Z,31.59
2023-04-30T04:59:44.611Z,31.59
2023-04-30T05:00:44.570Z,31.64
2023-04-30T05:01:44.652Z,31.67
2023-04-30T05:02:44.644Z,31.65
2023-04-30T05:03:44.657Z,31.64
2023-04-30T05:04:44.569Z,31.66
2023-04-30T05:05:44.566Z,31.72
2023-04-30T05:06:44.595Z,31.72
2023-04-30T05:07:44.573Z,31.74
2023-04-30T05:08:44.543Z,31.76
2023-04-30T05:09:44.553Z,31.75
2023-04-30T05:10:44.555Z,31.75
2023-04-30T05:11:44.559Z,31.77
2023-04-30T05:12:44.585Z,31.78
2023-04-30T05:13:44.573Z,31.82
2023-04-30T05:14:44.583Z,31.81
2023-04-30T05:15:44.580Z,31.84
2023-04-30T05:16:44.839Z,31.86
2023-04-30T05:17:44.651Z,31.88
2023-04-30T05:18:44.586Z,31.88
2023-04-30T05:19:44.578Z,31.90
2023-04-30T05:20:44.580Z,31.89
2023-04-30T05:21:44.595Z,31.89
2023-04-30T05:22:44.588Z,31.92
2023-04-30T05:23:44.593Z,31.93
2023-04-30T05:24:44.616Z,31.94
2023-04-30T05:25:44.682Z,31.97
2023-04-30T05:26:44.762Z,31.98
2023-04-30T05:27:44.800Z,31.96
2023-04-30T05:28:44.845Z,31.98
2023-04-30T05:29:44.903Z,31.99
2023-04-30T05:30:44.950Z,32.02
2023-04-30T05:31:45.040Z,32.03
2023-04-30T05:32:45.087Z,32.00
2023-04-30T05:33:45.103Z,32.03
2023-04-30T05:34:45.147Z,32.04
2023-04-30T05:35:45.199Z,32.04
2023-04-30T05:36:45.272Z,32.06
2023-04-30T05:37:45.316Z,32.03
2023-04-30T05:38:45.310Z,32.06
2023-04-30T05:39:45.319Z,32.02
2023-04-30T05:40:45.324Z,32.07
2023-04-30T05:41:45.322Z,32.08
2023-04-30T05:42:45.317Z,32.07
2023-04-30T05:43:45.311Z,32.07
2023-04-30T05:44:45.325Z,32.08
2023-04-30T05:45:45.335Z,32.08
2023-04-30T05:46:45.330Z,32.06
2023-04-30T05:47:45.353Z,32.09
2023-04-30T05:48:45.364Z,32.07
2023-04-30T05:49:45.426Z,32.08
2023-04-30T05:50:45.489Z,32.12
2023-04-30T05:51:45.539Z,32.10
2023-04-30T05:52:45.606Z,32.09
2023-04-30T05:53:45.655Z,32.07
2023-04-30T05:54:47.317Z,32.09
2023-04-30T05:55:45.685Z,32.05
2023-04-30T05:56:45.700Z,32.01
2023-04-30T05:57:45.681Z,32.02
2023-04-30T05:58:45.711Z,31.99
2023-04-30T05:59:45.680Z,32.01
2023-04-30T06:00:45.679Z,32.01
2023-04-30T06:01:45.704Z,32.00
2023-04-30T06:02:45.712Z,31.96
2023-04-30T06:03:45.666Z,31.98
2023-04-30T06:04:45.750Z,31.96
2023-04-30T06:05:45.699Z,31.94
2023-04-30T06:06:45.924Z,31.91
2023-04-30T06:07:45.683Z,31.88
2023-04-30T06:08:45.780Z,31.87
2023-04-30T06:09:45.651Z,31.82
2023-04-30T06:10:45.703Z,31.81
2023-04-30T06:11:45.633Z,31.81
2023-04-30T06:12:45.626Z,31.80
2023-04-30T06:13:45.606Z,31.76
2023-04-30T06:14:45.616Z,31.74
2023-04-30T06:15:45.607Z,31.74
2023-04-30T06:16:45.684Z,31.73
2023-04-30T06:17:45.665Z,31.71
2023-04-30T06:18:45.592Z,31.70
2023-04-30T06:19:45.587Z,31.75
2023-04-30T06:20:45.672Z,31.74
2023-04-30T06:21:45.605Z,31.74
2023-04-30T06:22:45.586Z,31.71
2023-04-30T06:23:45.584Z,31.70
2023-04-30T06:24:45.608Z,31.70
2023-04-30T06:25:45.569Z,31.71
2023-04-30T06:26:45.583Z,31.71
2023-04-30T06:27:45.566Z,31.69
2023-04-30T06:28:45.591Z,31.69
2023-04-30T06:29:45.618Z,31.69
2023-04-30T06:30:45.671Z,31.70
2023-04-30T06:31:45.810Z,31.72
2023-04-30T06:32:45.831Z,31.74
2023-04-30T06:33:45.840Z,31.75
2023-04-30T06:34:45.898Z,31.77
2023-04-30T06:35:45.999Z,31.80
2023-04-30T06:36:45.993Z,31.77
2023-04-30T06:37:46.049Z,31.78
2023-04-30T06:38:46.096Z,31.80
2023-04-30T06:39:46.092Z,31.80
2023-04-30T06:40:46.096Z,31.80
2023-04-30T06:41:46.112Z,31.80
2023-04-30T06:42:47.626Z,31.79
2023-04-30T06:43:46.081Z,31.79
2023-04-30T06:44:46.100Z,31.78
2023-04-30T06:45:46.124Z,31.77
2023-04-30T06:46:46.115Z,31.75
2023-04-30T06:47:46.160Z,31.72
2023-04-30T06:48:46.101Z,31.71
2023-04-30T06:49:46.145Z,31.68
2023-04-30T06:50:46.207Z,31.69
2023-04-30T06:51:46.225Z,31.66
2023-04-30T06:52:46.268Z,31.69
2023-04-30T06:53:46.329Z,31.67
2023-04-30T06:54:46.365Z,31.68
2023-04-30T06:55:46.418Z,31.63
2023-04-30T06:56:46.464Z,31.60
2023-04-30T06:57:46.511Z,31.58
2023-04-30T06:58:46.552Z,31.56
2023-04-30T06:59:46.599Z,31.53
2023-04-30T07:00:46.630Z,31.53
2023-04-30T07:01:46.770Z,31.53
2023-04-30T07:02:46.791Z,31.47
2023-04-30T07:03:46.909Z,31.49
2023-04-30T07:04:46.830Z,31.45
2023-04-30T07:05:46.883Z,31.44
2023-04-30T07:06:46.957Z,31.46
2023-04-30T07:07:46.984Z,31.44
2023-04-30T07:08:47.180Z,31.43
2023-04-30T07:09:47.694Z,31.43
2023-04-30T07:10:47.113Z,31.42
2023-04-30T07:11:47.157Z,31.41
2023-04-30T07:12:47.227Z,31.40
2023-04-30T07:13:47.260Z,31.37
2023-04-30T07:14:47.298Z,31.39
2023-04-30T07:15:47.384Z,31.37
2023-04-30T07:16:47.395Z,31.39
2023-04-30T07:17:47.539Z,31.40
2023-04-30T07:18:47.504Z,31.40
2023-04-30T07:19:47.547Z,31.40
2023-04-30T07:20:47.590Z,31.39
2023-04-30T07:21:47.648Z,31.40
2023-04-30T07:22:47.747Z,31.44
2023-04-30T07:23:47.744Z,31.45
2023-04-30T07:24:47.803Z,31.41
2023-04-30T07:25:47.867Z,31.36
2023-04-30T07:26:47.912Z,31.33
2023-04-30T07:27:47.961Z,31.32
2023-04-30T07:28:48.023Z,31.29
2023-04-30T07:29:48.024Z,31.28
2023-04-30T07:30:48.054Z,31.23
2023-04-30T07:31:48.174Z,31.20
2023-04-30T07:32:48.194Z,31.19
2023-04-30T07:33:48.190Z,31.18
2023-04-30T07:34:48.223Z,31.19
2023-04-30T07:35:48.293Z,31.16
2023-04-30T07:36:48.318Z,31.16
2023-04-30T07:37:48.389Z,31.15
2023-04-30T07:38:48.431Z,31.16
2023-04-30T07:39:48.463Z,31.16
2023-04-30T07:40:48.596Z,31.15
2023-04-30T07:41:48.571Z,31.15
2023-04-30T07:42:48.645Z,31.16
2023-04-30T07:43:48.679Z,31.15
2023-04-30T07:44:48.733Z,31.17
2023-04-30T07:45:48.808Z,31.13
2023-04-30T07:46:48.811Z,31.10
2023-04-30T07:47:48.908Z,31.14
2023-04-30T07:48:48.913Z,31.14
2023-04-30T07:49:48.957Z,31.12
2023-04-30T07:50:50.531Z,31.13
2023-04-30T07:51:49.063Z,31.10
2023-04-30T07:52:49.122Z,31.08
2023-04-30T07:53:49.154Z,31.12
2023-04-30T07:54:49.197Z,31.13
2023-04-30T07:55:49.266Z,31.14
2023-04-30T07:56:49.305Z,31.11
2023-04-30T07:57:49.356Z,31.11
2023-04-30T07:58:49.414Z,31.08
2023-04-30T07:59:51.377Z,31.12
2023-04-30T08:00:49.447Z,31.08
2023-04-30T08:01:49.487Z,31.06
2023-04-30T08:02:49.571Z,31.04
2023-04-30T08:03:49.593Z,31.03
2023-04-30T08:04:49.446Z,31.02
2023-04-30T08:05:49.463Z,30.98
2023-04-30T08:06:49.529Z,31.00
2023-04-30T08:07:49.460Z,30.99
2023-04-30T08:08:50.529Z,30.98
2023-04-30T08:09:49.448Z,30.98
2023-04-30T08:10:49.429Z,30.98
2023-04-30T08:11:49.459Z,30.95
2023-04-30T08:12:49.457Z,30.98
2023-04-30T08:13:49.434Z,30.97
2023-04-30T08:14:49.432Z,30.93
2023-04-30T08:15:49.449Z,30.96
2023-04-30T08:16:49.458Z,30.98
2023-04-30T08:17:49.454Z,30.95
2023-04-30T08:18:49.445Z,30.99
2023-04-30T08:19:49.463Z,30.93
2023-04-30T08:20:49.440Z,30.99
2023-04-30T08:21:49.446Z,30.97
2023-04-30T08:22:49.451Z,31.00
2023-04-30T08:23:49.458Z,30.98
2023-04-30T08:24:49.461Z,30.94
2023-04-30T08:25:49.474Z,30.91
2023-04-30T08:26:49.467Z,30.89
2023-04-30T08:27:49.476Z,30.88
2023-04-30T08:28:49.466Z,30.82
2023-04-30T08:29:49.462Z,30.86
2023-04-30T08:30:49.478Z,30.88
2023-04-30T08:31:49.489Z,30.84
2023-04-30T08:32:49.517Z,30.84
2023-04-30T08:33:49.465Z,30.77
2023-04-30T08:34:49.453Z,30.77
2023-04-30T08:35:49.475Z,30.75
2023-04-30T08:36:49.463Z,30.78
2023-04-30T08:37:49.475Z,30.71
2023-04-30T08:38:49.449Z,30.74
2023-04-30T08:39:49.449Z,30.69
2023-04-30T08:40:51.813Z,30.64
2023-04-30T08:41:49.731Z,30.66
2023-04-30T08:42:49.726Z,30.67
2023-04-30T08:43:49.763Z,30.64
2023-04-30T08:44:49.867Z,30.67
2023-04-30T08:45:49.867Z,30.67
2023-04-30T08:46:49.851Z,30.66
2023-04-30T08:47:49.925Z,30.74
2023-04-30T08:48:49.930Z,30.76
2023-04-30T08:49:49.955Z,30.74
2023-04-30T08:50:49.991Z,30.72
2023-04-30T08:51:50.012Z,30.72
2023-04-30T08:52:50.048Z,30.72
2023-04-30T08:53:50.164Z,30.68
2023-04-30T08:54:50.097Z,30.68
2023-04-30T08:55:50.101Z,30.64
2023-04-30T08:56:50.120Z,30.59
2023-04-30T08:57:50.148Z,30.55
2023-04-30T08:58:50.168Z,30.52
2023-04-30T08:59:50.183Z,30.49
2023-04-30T09:00:50.146Z,30.48
2023-04-30T09:01:53.502Z,30.44
2023-04-30T09:02:50.245Z,30.39
2023-04-30T09:03:50.221Z,30.37
2023-04-30T09:04:50.123Z,30.30
2023-04-30T09:05:50.123Z,30.24
2023-04-30T09:06:50.166Z,30.22
2023-04-30T09:08:02.400Z,30.20
2023-04-30T09:08:51.108Z,30.21
2023-04-30T09:09:50.097Z,30.19
2023-04-30T09:10:50.087Z,30.19
2023-04-30T09:11:50.095Z,30.19
2023-04-30T09:12:50.072Z,30.18
2023-04-30T09:13:50.216Z,30.15
2023-04-30T09:14:50.041Z,30.14
2023-04-30T09:15:50.130Z,30.18
2023-04-30T09:16:50.148Z,30.17
2023-04-30T09:17:50.070Z,30.16
2023-04-30T09:18:50.013Z,30.17
2023-04-30T09:19:50.002Z,30.15
2023-04-30T09:20:49.983Z,30.14
2023-04-30T09:21:49.997Z,30.14
2023-04-30T09:22:49.983Z,30.13
2023-04-30T09:23:50.137Z,30.10
2023-04-30T09:24:49.971Z,30.08
2023-04-30T09:25:49.957Z,30.08
2023-04-30T09:26:49.936Z,30.06
2023-04-30T09:27:49.928Z,30.05
2023-04-30T09:28:49.919Z,30.00
2023-04-30T09:29:49.922Z,30.00
2023-04-30T09:30:49.920Z,29.96
2023-04-30T09:31:50.112Z,29.92
2023-04-30T09:32:49.928Z,29.94
2023-04-30T09:33:49.898Z,29.91
2023-04-30T09:34:49.869Z,29.89
2023-04-30T09:35:49.871Z,29.88
2023-04-30T09:36:49.845Z,29.90
2023-04-30T09:37:49.865Z,29.91
2023-04-30T09:38:49.829Z,29.90
2023-04-30T09:39:49.818Z,29.92
2023-04-30T09:40:49.815Z,29.91
2023-04-30T09:41:49.807Z,29.93
2023-04-30T09:42:49.779Z,29.89
2023-04-30T09:43:49.796Z,29.84
2023-04-30T09:44:49.829Z,29.83
2023-04-30T09:45:49.852Z,29.81
2023-04-30T09:46:49.895Z,29.77
2023-04-30T09:47:49.979Z,29.76
2023-04-30T09:48:49.922Z,29.76
2023-04-30T09:49:49.953Z,29.76
2023-04-30T09:50:49.945Z,29.77
2023-04-30T09:51:49.984Z,29.77
2023-04-30T09:52:49.994Z,29.72
2023-04-30T09:53:49.994Z,29.71
2023-04-30T09:54:50.010Z,29.70
2023-04-30T09:55:50.041Z,29.69
2023-04-30T09:56:50.035Z,29.65
2023-04-30T09:57:50.058Z,29.63
2023-04-30T09:58:50.054Z,29.64
2023-04-30T09:59:50.078Z,29.64
2023-04-30T10:00:50.268Z,29.63
2023-04-30T10:01:50.094Z,29.60
2023-04-30T10:02:50.127Z,29.59
2023-04-30T10:03:50.107Z,29.57
2023-04-30T10:04:50.073Z,29.56
2023-04-30T10:05:50.066Z,29.59
2023-04-30T10:06:50.191Z,29.57
2023-04-30T10:07:50.066Z,29.54
2023-04-30T10:08:50.053Z,29.58
2023-04-30T10:09:50.046Z,29.60
2023-04-30T10:10:50.025Z,29.62
2023-04-30T10:11:50.002Z,29.61
2023-04-30T10:12:49.985Z,29.62
2023-04-30T10:13:49.978Z,29.62
2023-04-30T10:14:49.960Z,29.61
2023-04-30T10:15:49.972Z,29.57
2023-04-30T10:16:50.008Z,29.56
2023-04-30T10:17:49.941Z,29.56
2023-04-30T10:18:50.835Z,29.52
2023-04-30T10:19:49.885Z,29.51
2023-04-30T10:20:49.975Z,29.52
2023-04-30T10:21:49.854Z,29.51
2023-04-30T10:22:49.908Z,29.46
2023-04-30T10:23:49.815Z,29.49
2023-04-30T10:24:49.787Z,29.52
2023-04-30T10:25:49.784Z,29.54
2023-04-30T10:26:49.777Z,29.55
2023-04-30T10:27:49.761Z,29.57
2023-04-30T10:28:49.724Z,29.57
2023-04-30T10:29:49.715Z,29.58
2023-04-30T10:30:49.844Z,29.60
2023-04-30T10:31:49.763Z,29.51
2023-04-30T10:32:49.693Z,29.47
2023-04-30T10:33:49.643Z,29.43
2023-04-30T10:34:49.616Z,29.40
2023-04-30T10:35:49.618Z,29.46
2023-04-30T10:36:49.585Z,29.47
2023-04-30T10:37:49.596Z,29.48
2023-04-30T10:38:49.559Z,29.51
2023-04-30T10:39:49.540Z,29.49
2023-04-30T10:40:49.533Z,29.49
2023-04-30T10:41:49.527Z,29.49
2023-04-30T10:42:49.510Z,29.48
2023-04-30T10:43:49.480Z,29.51
2023-04-30T10:44:49.462Z,29.53
2023-04-30T10:45:49.471Z,29.50
2023-04-30T10:46:49.423Z,29.54
2023-04-30T10:47:49.466Z,29.53
2023-04-30T10:48:49.383Z,29.52
2023-04-30T10:49:49.358Z,29.53
2023-04-30T10:50:49.364Z,29.53
2023-04-30T10:51:49.383Z,29.54
2023-04-30T10:52:49.309Z,29.53
2023-04-30T10:53:49.297Z,29.52
2023-04-30T10:54:49.299Z,29.54
2023-04-30T10:55:49.278Z,29.46
2023-04-30T10:56:49.232Z,29.41
2023-04-30T10:57:49.237Z,29.40
2023-04-30T10:58:49.187Z,29.38
2023-04-30T10:59:49.325Z,29.43
2023-04-30T11:00:49.154Z,29.46
2023-04-30T11:01:49.173Z,29.49
2023-04-30T11:02:49.128Z,29.50
2023-04-30T11:03:49.082Z,29.50
2023-04-30T11:04:49.113Z,29.51
2023-04-30T11:05:49.054Z,29.52
2023-04-30T11:06:49.084Z,29.50
2023-04-30T11:07:49.011Z,29.50
2023-04-30T11:08:48.978Z,29.42
2023-04-30T11:09:48.984Z,29.41
2023-04-30T11:10:48.956Z,29.41
2023-04-30T11:11:48.951Z,29.36
2023-04-30T11:12:48.917Z,29.33
2023-04-30T11:13:48.942Z,29.29
2023-04-30T11:14:48.976Z,29.30
2023-04-30T11:15:49.137Z,29.28
2023-04-30T11:16:49.099Z,29.26
2023-04-30T11:17:49.212Z,29.27
2023-04-30T11:18:49.208Z,29.26
2023-04-30T11:19:49.244Z,29.28
2023-04-30T11:20:49.270Z,29.31
2023-04-30T11:21:49.304Z,29.34
2023-04-30T11:22:49.365Z,29.32
2023-04-30T11:23:49.421Z,29.31
2023-04-30T11:24:49.381Z,29.28
2023-04-30T11:25:49.338Z,29.30
2023-04-30T11:26:49.331Z,29.29
2023-04-30T11:27:49.295Z,29.26
2023-04-30T11:28:49.294Z,29.24
2023-04-30T11:29:49.431Z,29.22
2023-04-30T11:30:49.228Z,29.21
2023-04-30T11:31:49.248Z,29.18
2023-04-30T11:32:49.352Z,29.18
2023-04-30T11:33:49.280Z,29.18
2023-04-30T11:34:49.347Z,29.17
2023-04-30T11:35:49.386Z,29.17
2023-04-30T11:36:49.427Z,29.17
2023-04-30T11:37:49.489Z,29.15
2023-04-30T11:38:49.506Z,29.15
2023-04-30T11:39:49.481Z,29.13
2023-04-30T11:40:49.465Z,29.11
2023-04-30T11:41:49.439Z,29.10
2023-04-30T11:42:49.446Z,29.08
2023-04-30T11:43:49.418Z,29.07
2023-04-30T11:44:49.397Z,29.05
2023-04-30T11:45:49.361Z,29.05
2023-04-30T11:46:49.406Z,29.04
2023-04-30T11:47:49.381Z,29.03
2023-04-30T11:48:49.365Z,29.01
2023-04-30T11:49:49.301Z,28.99
2023-04-30T11:50:49.305Z,28.97
2023-04-30T11:51:49.273Z,28.94
2023-04-30T11:52:49.356Z,28.94
2023-04-30T11:53:49.348Z,28.94
2023-04-30T11:54:49.353Z,28.91
2023-04-30T11:55:49.372Z,28.89
2023-04-30T11:56:49.407Z,28.89
2023-04-30T11:57:49.471Z,28.89
2023-04-30T11:58:49.538Z,28.85
2023-04-30T11:59:49.488Z,28.86
2023-04-30T12:00:49.497Z,28.86
2023-04-30T12:01:49.574Z,28.83
2023-04-30T12:02:49.654Z,28.82
2023-04-30T12:03:49.709Z,28.83
2023-04-30T12:04:49.569Z,28.77
2023-04-30T12:05:49.579Z,28.80
2023-04-30T12:06:49.790Z,28.80
2023-04-30T12:07:49.628Z,28.77
2023-04-30T12:08:49.626Z,28.80
2023-04-30T12:09:49.646Z,28.78
2023-04-30T12:10:49.677Z,28.78
2023-04-30T12:11:49.698Z,28.77
2023-04-30T12:12:51.276Z,28.74
2023-04-30T12:13:49.715Z,28.76
2023-04-30T12:14:49.691Z,28.75
2023-04-30T12:15:49.704Z,28.71
2023-04-30T12:16:49.810Z,28.71
2023-04-30T12:17:49.649Z,28.72
2023-04-30T12:18:51.353Z,28.71
2023-04-30T12:19:49.572Z,28.70
2023-04-30T12:20:49.556Z,28.66
2023-04-30T12:21:49.538Z,28.67
2023-04-30T12:22:49.519Z,28.66
2023-04-30T12:23:49.500Z,28.68
2023-04-30T12:24:49.469Z,28.66
2023-04-30T12:25:49.438Z,28.63
2023-04-30T12:26:49.418Z,28.64
2023-04-30T12:27:49.409Z,28.61
2023-04-30T12:28:49.400Z,28.61
2023-04-30T12:29:49.357Z,28.60
2023-04-30T12:30:49.336Z,28.58
2023-04-30T12:31:49.376Z,28.58
2023-04-30T12:32:49.340Z,28.57
2023-04-30T12:33:49.294Z,28.58
2023-04-30T12:34:49.320Z,28.57
2023-04-30T12:35:49.268Z,28.56
2023-04-30T12:36:49.237Z,28.56
2023-04-30T12:37:49.202Z,28.54
2023-04-30T12:38:49.209Z,28.54
2023-04-30T12:39:49.167Z,28.54
2023-04-30T12:40:49.178Z,28.53
2023-04-30T12:41:49.147Z,28.54
2023-04-30T12:42:49.107Z,28.51
2023-04-30T12:43:49.093Z,28.52
2023-04-30T12:44:49.049Z,28.50
2023-04-30T12:45:49.109Z,28.49
2023-04-30T12:46:49.115Z,28.50
2023-04-30T12:47:49.024Z,28.49
2023-04-30T12:48:49.002Z,28.49
2023-04-30T12:49:48.938Z,28.50
2023-04-30T12:50:48.942Z,28.49
2023-04-30T12:51:48.879Z,28.48
2023-04-30T12:52:48.877Z,28.48